Latest Coastal Weather Observations for Kingscote

IDS60701

Issued at 11:31 am CDT Tuesday 28 February 2017 (issued every 10 minutes, with the page automatically refreshed every 10 minutes)

About coastal observations | Map of coastal stations | Coastal observations for SA | Marine services | Other Formats
Station Details ID: 022841 Name: KINGSCOTE AERO Lat: -35.71 Lon: 137.52 Height: 6.23 m
Data from the previous 72 hours. | See also: Recent months at Kingscote
Date/Time
CDT
Temp
°C
Wind Pressure Rain since
9am
mm
Weather Cloud Vis
km
Sea
Height
m
Swell
Dir  Spd
kts
Gust
kts
hPa Trend Height
m
Period
s
Dir
28/11:00am 30.5 NNE 8 16 1017.2 - 0.0 - - 10 - - - -
28/10:30am 26.9 NNE 4 7 1017.4 - 0.0 - - 10 - - - -
28/10:00am 23.1 CALM 0 0 1017.4 - 0.0 - - 10 - - - -
28/09:30am 19.9 WNW 5 6 1017.4 - 0.0 - - 10 - - - -
28/09:24am 19.4 WNW 5 6 1017.4 - 0.0 - Partly cloudy 10 - - - -
28/09:00am 18.2 SW 3 5 1017.4 - 0.0 - Mostly cloudy 7 - - - -
28/08:54am 18.0 SSW 4 6 1017.4 - 0.0 - Cloudy 9 - - - -
28/08:30am 17.4 SW 5 7 1017.5 - 0.0 - Cloudy 1 - - - -
28/08:00am 17.2 SW 5 6 1017.3 - 0.0 - Cloudy 0.8 - - - -
28/07:30am 17.1 SSW 6 7 1017.1 - 0.0 - Cloudy 3 - - - -
28/07:15am 17.0 SW 6 7 1017.0 - 0.0 - Cloudy 5 - - - -
28/07:00am 17.0 SW 6 8 1017.0 - 0.0 - Cloudy 6 - - - -
28/06:57am 17.0 SW 6 8 1017.0 - 0.0 - Cloudy 6 - - - -
28/06:30am 16.9 SSW 7 8 1016.9 - 0.0 - Cloudy 5 - - - -
28/06:17am 16.8 SSW 8 10 1016.8 - 0.0 - Cloudy 5 - - - -
28/06:00am 16.8 SSW 7 9 1016.7 - 0.0 - Cloudy 6 - - - -
28/05:32am 16.8 SSW 6 7 1016.6 - 0.0 - Cloudy 5 - - - -
28/05:30am 16.8 SSW 6 7 1016.6 - 0.0 - Cloudy 6 - - - -
28/05:00am 16.2 SW 5 6 1016.5 - 0.0 - Partly cloudy 8 - - - -
28/04:49am 16.3 SSW 6 7 1016.5 - 0.0 - Partly cloudy 7 - - - -
28/04:36am 16.5 SSW 7 9 1016.5 - 0.0 - Partly cloudy 5 - - - -
28/04:32am 16.5 SSW 7 9 1016.5 - 0.0 - Partly cloudy 7 - - - -
28/04:30am 16.5 SSW 7 9 1016.5 - 0.0 - Partly cloudy 8 - - - -
28/04:00am 16.4 SSW 6 8 1016.8 - 0.0 - - 10 - - - -
28/03:30am 16.3 SSW 7 9 1016.9 - 0.0 - - 10 - - - -
28/03:00am 16.2 SSW 7 9 1017.1 - 0.0 - - 10 - - - -
28/02:30am 15.9 SW 5 6 1017.4 - 0.0 - - 10 - - - -
28/02:00am 16.1 SSW 5 8 1017.7 - 0.0 - - 10 - - - -
28/01:30am 16.1 SSW 5 6 1018.1 - 0.0 - Partly cloudy 10 - - - -
28/01:00am 16.5 SSW 7 11 1018.4 - 0.0 - - 10 - - - -
28/12:30am 16.6 SSW 9 11 1018.5 - 0.0 - - 10 - - - -
28/12:06am 16.7 SSW 8 10 1018.6 - 0.0 - Partly cloudy 10 - - - -
28/12:00am 16.7 SSW 9 11 1018.6 - 0.0 - Mostly clear 10 - - - -
 
Date/Time
CDT
Temp
°C
Wind Pressure Rain since
9am
mm
Weather Cloud Vis
km
Sea
Height
m
Swell
Dir  Spd
kts
Gust
kts
hPa Trend Height
m
Period
s
Dir
27/11:30pm 16.8 S 10 12 1018.6 - 0.0 - Cloudy 10 - - - -
27/11:02pm 16.7 S 6 9 1018.8 - 0.0 - Partly cloudy 10 - - - -
27/11:00pm 16.7 S 7 9 1018.8 - 0.0 - Partly cloudy 10 - - - -
27/10:30pm 17.1 S 7 10 1018.5 - 0.0 - - 10 - - - -
27/10:00pm 17.0 SSW 6 7 1018.2 - 0.0 - - 10 - - - -
27/09:30pm 17.5 SSW 8 10 1018.0 - 0.0 - - 10 - - - -
27/09:00pm 17.9 SSW 10 13 1017.7 - 0.0 - - 10 - - - -
27/08:30pm 18.6 S 8 10 1017.5 - 0.0 - - 10 - - - -
27/08:00pm 19.1 S 8 11 1017.4 - 0.0 - - 10 - - - -
27/07:30pm 20.0 S 12 16 1017.3 - 0.0 - - 10 - - - -
27/07:00pm 21.4 S 10 13 1017.4 - 0.0 - - 10 - - - -
27/06:30pm 22.6 S 10 13 1017.1 - 0.0 - - 10 - - - -
27/06:00pm 23.9 S 11 15 1017.0 - 0.0 - - 10 - - - -
27/05:30pm 25.9 SSE 10 13 1016.8 - 0.0 - - 10 - - - -
27/05:00pm 27.3 SSE 11 15 1016.8 - 0.0 - - 10 - - - -
27/04:30pm 27.3 SSE 13 15 1016.8 - 0.0 - - 10 - - - -
27/04:00pm 27.5 SSE 13 17 1016.9 - 0.0 - - 10 - - - -
27/03:30pm 29.3 SSE 14 18 1016.8 - 0.0 - - 10 - - - -
27/03:00pm 30.7 SE 13 16 1017.0 - 0.0 - - 10 - - - -
27/02:30pm 30.4 SSE 10 13 1017.2 - 0.0 - - 10 - - - -
27/02:00pm 29.7 SE 9 13 1017.5 - 0.0 - - 10 - - - -
27/01:30pm 29.0 SE 8 12 1017.7 - 0.0 - - 10 - - - -
27/01:00pm 28.8 SE 9 13 1018.0 - 0.0 - - 10 - - - -
27/12:30pm 28.6 SSE 8 12 1018.2 - 0.0 - - 10 - - - -
27/12:00pm 28.5 S 8 11 1018.5 - 0.0 - - 10 - - - -
27/11:30am 27.6 SSE 7 10 1018.7 - 0.0 - - 10 - - - -
27/11:00am 25.8 SSE 8 10 1018.8 - 0.0 - - 10 - - - -
27/10:30am 23.8 S 6 8 1019.0 - 0.0 - - 10 - - - -
27/10:00am 22.1 SSE 6 9 1019.1 - 0.0 - - 10 - - - -
27/09:30am 19.4 SSW 5 7 1019.1 - 0.0 - - 10 - - - -
27/09:16am 17.8 SW 5 7 1019.1 - 0.0 - Partly cloudy 10 - - - -
27/09:10am 17.4 SSW 6 7 1019.1 - 0.0 - Partly cloudy 10 - - - -
27/09:00am 16.9 SSW 5 7 1019.1 - 0.0 - Partly cloudy 5 - - - -
27/08:37am 15.2 SW 6 7 1019.1 - 0.0 - Cloudy 0.4 - - - -
27/08:36am 15.1 SW 6 7 1019.1 - 0.0 - Cloudy - - - - -
27/08:30am 14.7 SW 5 7 1019.1 - 0.0 - Cloudy - - - - -
27/08:00am 11.1 W 5 5 1019.1 - 0.0 - Cloudy 0.5 - - - -
27/07:40am 8.5 WNW 5 5 1019.1 - 0.0 - Cloudy 0.2 - - - -
27/07:30am 8.7 WNW 4 5 1019.0 - 0.0 - Cloudy 0.2 - - - -
27/07:13am 9.5 WSW 3 4 1018.8 - 0.0 - Cloudy 0.1 - - - -
27/07:00am 9.1 WSW 5 6 1018.8 - 0.0 - Cloudy 0.1 - - - -
27/06:30am 8.1 WSW 5 6 1018.7 - 0.0 - Cloudy 0.1 - - - -
27/06:00am 9.7 SW 4 5 1018.6 - 0.0 - Partly cloudy 0.1 - - - -
27/05:54am 9.2 SW 4 5 1018.6 - 0.0 - Partly cloudy 0.3 - - - -
27/05:41am 9.2 SW 5 7 1018.5 - 0.0 - Partly cloudy 0.4 - - - -
27/05:30am 9.1 WSW 8 9 1018.6 - 0.0 - Partly cloudy 0.2 - - - -
27/05:25am 9.3 SW 7 9 1018.6 - 0.0 - Partly cloudy 0.2 - - - -
27/05:10am 8.6 SW 6 7 1018.5 - 0.0 - Partly cloudy 0.2 - - - -
27/05:00am 8.5 SSW 4 5 1018.5 - 0.0 - Partly cloudy 0.5 - - - -
27/04:30am 8.9 SSW 4 5 1018.5 - 0.0 - - 0.2 - - - -
27/04:00am 9.6 SW 5 5 1018.7 - 0.0 - Partly cloudy 0.3 - - - -
27/03:30am 10.5 SSW 2 4 1018.9 - 0.0 - Partly cloudy 10 - - - -
27/03:00am 10.7 S 3 4 1018.9 - 0.0 - - 4 - - - -
27/02:43am 11.4 S 3 4 1019.1 - 0.0 - - 5 - - - -
27/02:30am 11.2 S 3 4 1019.2 - 0.0 - - 8 - - - -
27/02:09am 11.3 SSW 4 5 1019.2 - 0.0 - Partly cloudy 10 - - - -
27/02:00am 11.7 SSW 5 5 1019.3 - 0.0 - Partly cloudy 10 - - - -
27/01:41am 11.9 SSW 6 7 1019.5 - 0.0 - Partly cloudy 10 - - - -
27/01:30am 11.0 SW 6 7 1019.7 - 0.0 - Partly cloudy 8 - - - -
27/01:00am 11.6 SSE 4 5 1019.7 - 0.0 - Partly cloudy 10 - - - -
27/12:30am 13.4 SSE 4 5 1019.9 - 0.0 - Partly cloudy 10 - - - -
27/12:00am 14.3 SSE 4 5 1019.9 - 0.0 - Mostly clear 10 - - - -
 
Date/Time
CDT
Temp
°C
Wind Pressure Rain since
9am
mm
Weather Cloud Vis
km
Sea
Height
m
Swell
Dir  Spd
kts
Gust
kts
hPa Trend Height
m
Period
s
Dir
26/11:30pm 14.6 ESE 4 5 1020.0 - 0.0 - Partly cloudy 10 - - - -
26/11:00pm 15.4 SE 6 8 1020.0 - 0.0 - Partly cloudy 10 - - - -
26/10:30pm 15.4 SSE 6 7 1020.1 - 0.0 - Partly cloudy 10 - - - -
26/10:00pm 15.6 SE 7 9 1020.1 - 0.0 - Partly cloudy 10 - - - -
26/09:30pm 15.5 SSE 6 9 1020.1 - 0.0 - Partly cloudy 10 - - - -
26/09:00pm 15.7 SSE 5 6 1019.8 - 0.0 - - 10 - - - -
26/08:30pm 16.5 SSE 7 9 1019.6 - 0.0 - - 10 - - - -
26/08:00pm 17.2 SSE 9 13 1019.3 - 0.0 - - 10 - - - -
26/07:30pm 18.3 SSE 11 14 1019.1 - 0.0 - - 10 - - - -
26/07:00pm 19.2 SE 12 15 1019.0 - 0.0 - - 10 - - - -
26/06:30pm 20.0 SSE 12 15 1018.9 - 0.0 - - 10 - - - -
26/06:00pm 21.1 SSE 12 15 1018.7 - 0.0 - - 10 - - - -
26/05:30pm 21.8 SSE 12 16 1018.5 - 0.0 - - 10 - - - -
26/05:00pm 22.1 SE 11 16 1018.5 - 0.0 - - 10 - - - -
26/04:30pm 22.9 SSE 12 21 1018.5 - 0.0 - - 10 - - - -
26/04:00pm 22.7 SE 11 16 1018.5 - 0.0 - - 10 - - - -
26/03:30pm 23.4 E 9 13 1018.6 - 0.0 - - 10 - - - -
26/03:00pm 23.0 E 8 16 1019.0 - 0.0 - - 10 - - - -
26/02:30pm 22.8 ENE 8 13 1019.2 - 0.0 - - 10 - - - -
26/02:00pm 23.1 ENE 11 15 1019.3 - 0.0 - - 10 - - - -
26/01:30pm 23.2 ESE 9 14 1019.4 - 0.0 - - 10 - - - -
26/01:00pm 22.0 SE 10 17 1019.6 - 0.0 - - 10 - - - -
26/12:30pm 22.1 SE 11 15 1020.0 - 0.0 - - 10 - - - -
26/12:00pm 22.3 SE 10 18 1020.2 - 0.0 - - 10 - - - -
26/11:30am 21.5 ESE 8 13 1020.7 - 0.0 - - 10 - - - -
26/11:00am 20.3 ESE 8 13 1021.0 - 0.0 - - 10 - - - -
26/10:30am 18.9 SE 9 14 1021.3 - 0.0 - - 10 - - - -
26/10:00am 18.9 ESE 10 14 1021.4 - 0.0 - - 10 - - - -
26/09:30am 18.0 E 11 14 1021.8 - 0.0 - - 10 - - - -
26/09:00am 17.0 ESE 10 13 1021.7 - 0.0 - - 10 - - - -
26/08:30am 14.4 S 2 4 1021.7 - 0.0 - - 10 - - - -
26/08:00am 11.8 CALM 0 0 1021.6 - 0.0 - - 10 - - - -
26/07:30am 9.4 CALM 0 0 1021.3 - 0.0 - - 10 - - - -
26/07:00am 8.6 CALM 0 0 1021.1 - 0.0 - Partly cloudy 10 - - - -
26/06:30am 7.9 CALM 0 0 1021.2 - 0.0 - - 10 - - - -
26/06:00am 8.5 CALM 0 0 1020.9 - 0.0 - - 10 - - - -
26/05:30am 9.3 CALM 0 0 1020.9 - 0.0 - - 10 - - - -
26/05:00am 9.2 CALM 0 0 1020.9 - 0.0 - - 10 - - - -
26/04:30am 9.4 CALM 0 0 1021.0 - 0.0 - Partly cloudy 10 - - - -
26/04:00am 10.6 CALM 0 0 1021.2 - 0.0 - Cloudy 8 - - - -
26/03:30am 10.4 CALM 0 0 1021.5 - 0.0 - Partly cloudy 10 - - - -
26/03:00am 11.2 SSE 1 4 1021.6 - 0.0 - - 10 - - - -
26/02:30am 12.1 SSE 5 6 1021.8 - 0.0 - - 10 - - - -
26/02:00am 13.3 SSE 6 8 1022.0 - 0.0 - Partly cloudy 10 - - - -
26/01:30am 13.2 SE 6 8 1022.3 - 0.0 - - 10 - - - -
26/01:00am 13.2 ESE 4 7 1022.5 - 0.0 - - 10 - - - -
26/12:30am 13.8 SE 5 7 1022.8 - 0.0 - - 10 - - - -
26/12:00am 14.2 SE 7 9 1023.1 - 0.0 - - 10 - - - -
 
Date/Time
CDT
Temp
°C
Wind Pressure Rain since
9am
mm
Weather Cloud Vis
km
Sea
Height
m
Swell
Dir  Spd
kts
Gust
kts
hPa Trend Height
m
Period
s
Dir
25/11:30pm 14.6 SSE 9 11 1023.2 - 0.0 - - 10 - - - -
25/11:00pm 14.6 SE 8 13 1023.4 - 0.0 - - 10 - - - -
25/10:30pm 14.7 SE 9 15 1023.5 - 0.0 - - 10 - - - -
25/10:00pm 14.9 SSE 10 14 1023.8 - 0.0 - - 10 - - - -
25/09:30pm 15.1 SSE 10 15 1023.8 - 0.0 - - 10 - - - -
25/09:00pm 15.3 SSE 12 16 1023.5 - 0.0 - - 10 - - - -
25/08:30pm 15.8 SSE 11 15 1023.6 - 0.0 - - 10 - - - -
25/08:00pm 16.6 SSE 13 18 1023.4 - 0.0 - Partly cloudy 10 - - - -
25/07:30pm 17.0 SSE 13 18 1023.4 - 0.0 - Partly cloudy 10 - - - -
25/07:00pm 18.3 SE 13 18 1023.4 - 0.0 - Partly cloudy 10 - - - -
25/06:30pm 18.3 SSE 15 20 1023.3 - 0.0 - Partly cloudy 10 - - - -
25/06:00pm 19.2 SE 15 20 1023.4 - 0.0 - - 10 - - - -
25/05:30pm 19.3 SE 16 22 1023.5 - 0.0 - Partly cloudy 10 - - - -
25/05:00pm 19.8 SE 15 20 1023.8 - 0.0 - Partly cloudy 10 - - - -
25/04:30pm 19.9 SE 16 22 1023.9 - 0.0 - Partly cloudy 10 - - - -
25/04:00pm 20.9 SE 15 21 1024.1 - 0.0 - Partly cloudy 10 - - - -
25/03:30pm 20.6 SE 15 20 1024.2 - 0.0 - Partly cloudy 10 - - - -
25/03:00pm 21.0 SSE 15 21 1024.5 - 0.0 - Partly cloudy 10 - - - -
25/02:30pm 20.6 SE 14 23 1025.0 - 0.0 - Partly cloudy 10 - - - -
25/02:00pm 21.7 S 13 19 1025.2 - 0.0 - Partly cloudy 10 - - - -
25/01:30pm 21.0 SSE 12 17 1025.3 - 0.0 - Partly cloudy 10 - - - -
25/01:00pm 21.6 SSE 13 19 1025.6 - 0.0 - Partly cloudy 10 - - - -
25/12:30pm 21.9 SE 11 16 1025.8 - 0.0 - Cloudy 10 - - - -
25/12:00pm 21.3 SE 14 19 1026.0 - 0.0 - Mostly cloudy 10 - - - -

Other Formats:

Comma delimited format used in spreadsheet applications
http://www.bom.gov.au/fwo/IDS60701/IDS60701.95807.axf

JavaScript Object Notation format (JSON) in row-major order
http://www.bom.gov.au/fwo/IDS60701/IDS60701.95807.json